Time;durP1;ratioP1;P1;durP2;ratioP2;P2;SDS_P1;SDS_P2;PMS_P1;PMS_P2;Temp;Humidity;BMP_temperature;BMP_pressure;BME280_temperature;BME280_humidity;BME280_pressure;Samples;Min_cycle;Max_cycle;Signal;HPM_P1;HPM_P2
2022/08/06 00:01:05;;;;;;;0.20;0.20;;;14.50;65.00;;;;;;4858558;29;20087;-74
2022/08/06 00:03:31;;;;;;;0.45;0.17;;;14.50;65.20;;;;;;4841824;29;20077;-74
2022/08/06 00:05:57;;;;;;;0.25;0.20;;;14.60;65.30;;;;;;4858945;29;20425;-75
2022/08/06 00:08:23;;;;;;;0.30;0.22;;;14.50;65.30;;;;;;4858624;29;20045;-74
2022/08/06 00:10:49;;;;;;;0.20;0.20;;;14.50;65.40;;;;;;4841992;29;20037;-74
2022/08/06 00:13:15;;;;;;;0.25;0.20;;;14.40;65.40;;;;;;4858803;29;20037;-74
2022/08/06 00:15:40;;;;;;;0.35;0.20;;;14.40;65.50;;;;;;4826491;29;20093;-75
2022/08/06 00:18:07;;;;;;;0.73;0.30;;;14.40;65.60;;;;;;4842295;29;20137;-74
2022/08/06 00:20:33;;;;;;;0.20;0.20;;;14.30;65.70;;;;;;4858760;29;20056;-74
2022/08/06 00:22:59;;;;;;;0.20;0.20;;;14.30;65.80;;;;;;4858836;29;20076;-74
2022/08/06 00:25:25;;;;;;;0.20;0.20;;;14.30;65.90;;;;;;4858191;29;20400;-74
2022/08/06 00:27:51;;;;;;;0.60;0.30;;;14.30;66.00;;;;;;4858232;29;20045;-74
2022/08/06 00:30:17;;;;;;;1.10;0.20;;;14.20;65.90;;;;;;4841849;29;20037;-74
2022/08/06 00:32:42;;;;;;;0.30;0.20;;;14.20;66.00;;;;;;4858307;29;20030;-74
2022/08/06 00:35:08;;;;;;;0.22;0.20;;;14.20;66.10;;;;;;4841468;29;20057;-75
2022/08/06 00:37:34;;;;;;;0.30;0.20;;;14.20;66.20;;;;;;4858108;29;20044;-74
2022/08/06 00:40:00;;;;;;;0.38;0.30;;;14.20;66.20;;;;;;4858178;29;20030;-74
2022/08/06 00:42:27;;;;;;;0.10;0.10;;;14.10;66.20;;;;;;4858012;29;20553;-74
2022/08/06 00:44:53;;;;;;;1.45;0.32;;;14.20;66.30;;;;;;4858485;29;20042;-74
2022/08/06 00:47:19;;;;;;;0.28;0.28;;;14.20;66.40;;;;;;4841399;29;20044;-74
2022/08/06 00:49:45;;;;;;;0.20;0.20;;;14.10;66.50;;;;;;4857830;29;20054;-74
2022/08/06 00:52:10;;;;;;;0.10;0.10;;;14.10;66.50;;;;;;4857949;29;20049;-74
2022/08/06 00:54:56;;;;;;;0.20;0.20;;;14.10;66.60;;;;;;4857939;29;20041;-74
2022/08/06 00:57:22;;;;;;;0.20;0.20;;;14.10;66.80;;;;;;4857888;29;20046;-75
2022/08/06 00:59:47;;;;;;;0.70;0.22;;;14.00;66.70;;;;;;4858557;29;20117;-74
2022/08/06 01:02:13;;;;;;;0.15;0.15;;;14.00;66.80;;;;;;4861198;29;20037;-75
2022/08/06 01:04:39;;;;;;;1.02;0.20;;;13.90;66.90;;;;;;4860867;29;20041;-75
2022/08/06 01:07:05;;;;;;;0.30;0.20;;;13.90;67.00;;;;;;4861018;29;20041;-74
2022/08/06 01:09:31;;;;;;;0.20;0.20;;;13.90;67.10;;;;;;4860709;29;20050;-75
2022/08/06 01:11:57;;;;;;;0.10;0.10;;;13.90;67.20;;;;;;4860916;29;20497;-74
2022/08/06 01:14:22;;;;;;;0.17;0.10;;;14.00;67.50;;;;;;4860925;29;20128;-75
2022/08/06 01:16:55;;;;;;;0.20;0.20;;;13.80;67.30;;;;;;4829328;29;20086;-74
2022/08/06 01:19:38;;;;;;;0.20;0.20;;;13.80;67.40;;;;;;4861227;29;20044;-74
2022/08/06 01:22:34;;;;;;;0.52;0.20;;;13.80;67.60;;;;;;4859644;29;20076;-74
2022/08/06 01:25:12;;;;;;;0.20;0.20;;;13.70;67.60;;;;;;4860025;29;20050;-74
2022/08/06 01:27:58;;;;;;;0.30;0.30;;;13.70;67.70;;;;;;4860943;29;20046;-74
2022/08/06 01:30:30;;;;;;;0.43;0.20;;;13.70;68.40;;;;;;4861023;29;20098;-74
2022/08/06 01:33:04;;;;;;;1.55;0.30;;;13.70;67.90;;;;;;4860766;29;20389;-74
2022/08/06 01:35:34;;;;;;;0.90;0.20;;;13.70;67.90;;;;;;4860666;29;20041;-75
2022/08/06 01:38:06;;;;;;;0.17;0.17;;;13.70;67.90;;;;;;4860572;29;20041;-75
2022/08/06 01:40:35;;;;;;;0.20;0.20;;;13.50;67.90;;;;;;4844025;29;20511;-74
2022/08/06 01:43:03;;;;;;;0.15;0.13;;;13.60;68.10;;;;;;4860698;29;20050;-75
2022/08/06 01:45:32;;;;;;;0.22;0.20;;;13.60;68.20;;;;;;4860725;29;20049;-74
2022/08/06 01:48:03;;;;;;;0.50;0.17;;;13.50;68.20;;;;;;4843929;29;20053;-74
2022/08/06 01:50:34;;;;;;;0.10;0.10;;;13.50;68.20;;;;;;4860442;29;20056;-74
2022/08/06 01:53:03;;;;;;;0.30;0.20;;;13.50;68.30;;;;;;4844010;29;20415;-74
2022/08/06 01:55:33;;;;;;;0.32;0.20;;;13.50;68.30;;;;;;4860979;29;20038;-74
2022/08/06 01:58:04;;;;;;;0.17;0.17;;;13.50;68.40;;;;;;4860819;29;20416;-74
2022/08/06 02:00:32;;;;;;;0.10;0.10;;;13.50;68.40;;;;;;4844244;29;20038;-74
2022/08/06 02:03:01;;;;;;;0.40;0.20;;;13.50;68.40;;;;;;4860513;29;20496;-74
2022/08/06 02:05:29;;;;;;;0.15;0.15;;;13.50;68.40;;;;;;4843926;29;20483;-74
2022/08/06 02:07:58;;;;;;;0.10;0.10;;;13.50;68.40;;;;;;4860918;29;20049;-74
2022/08/06 02:10:27;;;;;;;0.20;0.20;;;13.50;68.40;;;;;;4843919;29;20037;-74
2022/08/06 02:12:53;;;;;;;0.20;0.20;;;13.50;69.10;;;;;;4860184;29;20112;-74
2022/08/06 02:15:26;;;;;;;0.28;0.20;;;13.50;68.50;;;;;;4860439;29;20436;-74
2022/08/06 02:17:56;;;;;;;0.17;0.17;;;13.50;68.60;;;;;;4843765;29;20098;-74
2022/08/06 02:20:26;;;;;;;0.10;0.10;;;13.50;68.60;;;;;;4843619;29;20453;-74
2022/08/06 02:22:54;;;;;;;0.25;0.20;;;13.50;68.70;;;;;;4843591;29;20106;-75
2022/08/06 02:25:21;;;;;;;0.17;0.17;;;13.40;68.60;;;;;;4860174;29;20043;-74
2022/08/06 02:27:50;;;;;;;0.30;0.20;;;13.50;68.80;;;;;;4860104;29;20053;-74
2022/08/06 02:30:16;;;;;;;0.45;0.20;;;13.40;68.80;;;;;;4843640;29;20038;-74
2022/08/06 02:32:42;;;;;;;0.63;0.20;;;13.40;68.80;;;;;;4843831;29;20030;-74
2022/08/06 02:35:09;;;;;;;0.20;0.20;;;13.40;68.90;;;;;;4859969;29;20122;-74
2022/08/06 02:37:44;;;;;;;0.60;0.20;;;13.40;69.00;;;;;;4843464;29;20049;-74
2022/08/06 02:40:21;;;;;;;0.10;0.10;;;13.40;69.00;;;;;;4860006;29;20046;-74
2022/08/06 02:42:58;;;;;;;0.35;0.20;;;13.40;69.10;;;;;;4860062;29;20365;-75
2022/08/06 02:45:46;;;;;;;1.60;0.20;;;13.40;69.10;;;;;;4859315;29;20034;-74
2022/08/06 02:48:23;;;;;;;0.22;0.22;;;13.40;69.20;;;;;;4846590;29;20056;-74
2022/08/06 02:50:50;;;;;;;0.20;0.20;;;13.30;69.20;;;;;;4843651;29;20440;-74
2022/08/06 02:53:19;;;;;;;0.20;0.20;;;13.30;69.90;;;;;;4860166;29;20045;-74
2022/08/06 02:55:50;;;;;;;0.30;0.30;;;13.30;69.30;;;;;;4857565;29;20128;-75
2022/08/06 02:58:26;;;;;;;0.10;0.10;;;13.40;70.10;;;;;;4843117;29;20116;-74
2022/08/06 03:00:55;;;;;;;0.20;0.20;;;13.30;69.50;;;;;;4842665;29;20508;-74
2022/08/06 03:03:22;;;;;;;0.22;0.20;;;13.30;69.60;;;;;;4859325;29;20048;-74
2022/08/06 03:05:50;;;;;;;0.75;0.30;;;13.20;69.60;;;;;;4859500;29;20037;-75
2022/08/06 03:08:20;;;;;;;0.30;0.30;;;13.20;69.70;;;;;;4859444;29;20073;-74
2022/08/06 03:10:47;;;;;;;0.63;0.25;;;13.10;69.70;;;;;;4859318;29;20029;-74
2022/08/06 03:13:14;;;;;;;0.10;0.10;;;13.10;69.80;;;;;;4843511;29;20042;-74
2022/08/06 03:15:42;;;;;;;0.20;0.20;;;13.10;69.90;;;;;;4859308;29;20029;-74
2022/08/06 03:18:08;;;;;;;0.40;0.20;;;13.10;70.00;;;;;;4859495;29;20042;-74
2022/08/06 03:20:35;;;;;;;0.52;0.28;;;13.10;70.00;;;;;;4859382;29;20071;-74
2022/08/06 03:23:06;;;;;;;0.20;0.20;;;13.10;70.10;;;;;;4827530;29;20046;-74
2022/08/06 03:25:32;;;;;;;0.20;0.20;;;13.00;70.10;;;;;;4841339;29;20069;-74
2022/08/06 03:28:00;;;;;;;0.93;0.25;;;13.00;70.20;;;;;;4858925;29;20425;-74
2022/08/06 03:30:26;;;;;;;0.20;0.10;;;13.00;70.30;;;;;;4859484;29;20053;-75
2022/08/06 03:32:54;;;;;;;0.20;0.20;;;12.90;70.30;;;;;;4859298;29;20053;-74
2022/08/06 03:35:20;;;;;;;0.17;0.17;;;13.00;70.40;;;;;;4859302;29;20058;-74
2022/08/06 03:37:48;;;;;;;0.45;0.20;;;12.90;70.50;;;;;;4859118;29;20042;-74
2022/08/06 03:40:16;;;;;;;0.30;0.30;;;12.90;70.60;;;;;;4859164;29;20038;-74
2022/08/06 03:42:42;;;;;;;0.20;0.20;;;12.80;70.50;;;;;;4859333;29;20041;-74
2022/08/06 03:45:09;;;;;;;0.10;0.10;;;12.80;71.20;;;;;;4842800;29;20683;-74
2022/08/06 03:47:41;;;;;;;1.13;0.30;;;12.80;70.70;;;;;;4859153;29;20056;-74
2022/08/06 03:50:12;;;;;;;0.20;0.20;;;12.70;70.80;;;;;;4859440;29;20485;-74
2022/08/06 03:52:45;;;;;;;0.30;0.30;;;12.60;70.80;;;;;;4842319;29;20512;-74
2022/08/06 03:55:16;;;;;;;0.10;0.10;;;12.80;71.00;;;;;;4842528;29;20046;-74
2022/08/06 03:57:44;;;;;;;;;;;12.70;71.00;;;;;;4859299;29;20049;-74
2022/08/06 04:00:14;;;;;;;0.30;0.30;;;12.60;71.00;;;;;;4858599;29;20006;-74
2022/08/06 04:02:46;;;;;;;0.10;0.10;;;12.60;71.00;;;;;;4842139;29;20041;-74
2022/08/06 04:05:21;;;;;;;0.10;0.10;;;12.60;71.10;;;;;;4842138;29;20190;-74
2022/08/06 04:07:48;;;;;;;0.30;0.30;;;12.60;71.20;;;;;;4828116;29;20042;-74
2022/08/06 04:10:17;;;;;;;0.10;0.10;;;12.60;71.20;;;;;;4859050;29;20173;-74
2022/08/06 04:12:45;;;;;;;0.20;0.20;;;12.50;71.30;;;;;;4858852;29;20030;-74
2022/08/06 04:15:13;;;;;;;0.20;0.20;;;12.50;71.30;;;;;;4858635;29;20037;-74
2022/08/06 04:17:41;;;;;;;0.20;0.20;;;12.50;71.40;;;;;;4857159;29;20511;-75
2022/08/06 04:20:10;;;;;;;0.15;0.15;;;12.50;71.40;;;;;;4858454;29;20370;-74
2022/08/06 04:22:36;;;;;;;0.50;0.30;;;12.50;72.10;;;;;;4811642;29;20038;-75
2022/08/06 04:25:04;;;;;;;0.20;0.20;;;12.40;71.40;;;;;;4858421;29;20183;-75
2022/08/06 04:27:31;;;;;;;0.30;0.20;;;12.50;71.50;;;;;;4858539;29;20057;-74
2022/08/06 04:29:59;;;;;;;0.32;0.20;;;12.50;71.50;;;;;;4858552;29;20434;-74
2022/08/06 04:32:26;;;;;;;0.20;0.20;;;12.50;71.50;;;;;;4858334;29;20033;-74
2022/08/06 04:34:54;;;;;;;0.20;0.20;;;12.40;71.40;;;;;;4856720;29;20047;-74
2022/08/06 04:37:20;;;;;;;0.13;0.13;;;12.50;71.50;;;;;;4861675;29;20370;-74
2022/08/06 04:39:46;;;;;;;0.30;0.20;;;12.50;71.60;;;;;;4861940;29;20106;-74
2022/08/06 04:42:12;;;;;;;0.35;0.10;;;12.50;71.70;;;;;;4861896;29;20033;-74
2022/08/06 04:44:38;;;;;;;0.20;0.20;;;12.50;71.70;;;;;;4861598;29;20560;-74
2022/08/06 04:47:04;;;;;;;0.25;0.25;;;12.50;71.70;;;;;;4861861;29;20053;-74
2022/08/06 04:49:31;;;;;;;0.20;0.20;;;12.50;71.60;;;;;;4861184;29;20500;-74
2022/08/06 04:51:58;;;;;;;0.30;0.30;;;12.60;71.50;;;;;;4845015;29;20038;-74
2022/08/06 04:54:23;;;;;;;0.20;0.20;;;12.60;71.50;;;;;;4845222;29;20129;-74
2022/08/06 04:56:49;;;;;;;0.20;0.20;;;12.70;71.60;;;;;;4844808;29;20141;-74
2022/08/06 04:59:15;;;;;;;0.30;0.30;;;12.70;71.60;;;;;;4861587;29;20045;-74
2022/08/06 05:01:41;;;;;;;0.20;0.20;;;12.70;71.60;;;;;;4861336;29;20047;-74
2022/08/06 05:04:06;;;;;;;0.80;0.30;;;12.70;71.60;;;;;;4829562;29;20519;-74
2022/08/06 05:07:06;;;;;;;0.30;0.30;;;12.80;71.60;;;;;;4860809;29;20069;-75
2022/08/06 05:09:32;;;;;;;0.22;0.20;;;12.80;71.70;;;;;;4861317;29;20493;-74
2022/08/06 05:12:04;;;;;;;0.20;0.20;;;12.90;71.60;;;;;;4861044;29;20093;-74
2022/08/06 05:14:37;;;;;;;0.30;0.30;;;12.90;71.60;;;;;;4860941;29;20042;-74
2022/08/06 05:17:04;;;;;;;0.65;0.30;;;13.00;71.50;;;;;;4844473;29;20141;-74
2022/08/06 05:19:36;;;;;;;0.80;0.30;;;13.00;71.50;;;;;;4860763;29;20046;-74
2022/08/06 05:22:03;;;;;;;0.10;0.10;;;13.00;71.50;;;;;;4844980;29;20038;-74
2022/08/06 05:24:29;;;;;;;0.15;0.15;;;13.00;71.50;;;;;;4860929;29;20396;-74
2022/08/06 05:26:55;;;;;;;0.30;0.30;;;13.10;71.60;;;;;;4844379;29;20038;-74
2022/08/06 05:29:21;;;;;;;0.20;0.20;;;13.10;71.60;;;;;;4843774;29;20524;-74
2022/08/06 05:31:47;;;;;;;0.30;0.30;;;13.20;71.80;;;;;;4861280;29;20125;-74
2022/08/06 05:34:13;;;;;;;0.20;0.20;;;13.10;71.80;;;;;;4844338;29;20382;-74
2022/08/06 05:36:40;;;;;;;0.30;0.30;;;13.10;71.80;;;;;;4860806;29;20046;-74
2022/08/06 05:39:06;;;;;;;0.77;0.30;;;13.10;71.80;;;;;;4860481;29;20033;-74
2022/08/06 05:41:34;;;;;;;0.43;0.38;;;13.10;71.80;;;;;;4844422;29;20510;-74
2022/08/06 05:44:01;;;;;;;0.55;0.30;;;13.20;71.80;;;;;;4860872;29;20042;-74
2022/08/06 05:46:33;;;;;;;0.93;0.35;;;13.10;71.80;;;;;;4859812;29;20042;-74
2022/08/06 05:49:06;;;;;;;0.40;0.30;;;13.20;72.00;;;;;;4860314;29;20049;-74
2022/08/06 05:51:43;;;;;;;0.20;0.20;;;13.20;72.00;;;;;;4860521;29;20104;-74
2022/08/06 05:54:23;;;;;;;0.22;0.10;;;13.20;72.00;;;;;;4860500;29;20481;-74
2022/08/06 05:56:51;;;;;;;0.43;0.20;;;13.30;71.90;;;;;;4843718;29;20441;-74
2022/08/06 05:59:28;;;;;;;0.32;0.28;;;13.30;71.90;;;;;;4844467;29;20407;-74
2022/08/06 06:01:55;;;;;;;0.28;0.20;;;13.40;72.00;;;;;;4842999;29;20045;-74
2022/08/06 06:04:23;;;;;;;0.20;0.20;;;13.40;71.90;;;;;;4860425;29;20488;-74
2022/08/06 06:06:50;;;;;;;0.47;0.30;;;13.40;71.80;;;;;;4860475;29;20061;-75
2022/08/06 06:09:16;;;;;;;0.32;0.30;;;13.50;71.80;;;;;;4860220;29;20041;-74
2022/08/06 06:11:43;;;;;;;0.20;0.20;;;13.60;71.80;;;;;;4860203;29;20465;-75
2022/08/06 06:14:41;;;;;;;0.30;0.20;;;13.60;71.80;;;;;;4828181;29;20128;-74
2022/08/06 06:17:33;;;;;;;0.20;0.20;;;13.60;71.70;;;;;;4859894;29;20038;-74
2022/08/06 06:20:20;;;;;;;0.22;0.22;;;13.70;72.30;;;;;;4860163;29;20042;-74
2022/08/06 06:23:04;;;;;;;0.28;0.10;;;13.80;71.60;;;;;;4860653;29;20041;-74
2022/08/06 06:25:36;;;;;;;0.15;0.15;;;13.80;71.50;;;;;;4860169;29;20037;-75
2022/08/06 06:28:19;;;;;;;0.55;0.20;;;13.90;71.40;;;;;;4843331;29;20136;-74
2022/08/06 06:31:02;;;;;;;0.20;0.20;;;14.00;71.40;;;;;;4829648;29;20041;-74
2022/08/06 06:33:52;;;;;;;0.13;0.13;;;14.10;71.40;;;;;;4859663;29;20533;-74
2022/08/06 06:36:41;;;;;;;0.20;0.20;;;14.20;71.30;;;;;;4858439;29;20034;-75
2022/08/06 06:39:21;;;;;;;0.20;0.20;;;14.30;71.10;;;;;;4843511;29;20034;-74
2022/08/06 06:41:54;;;;;;;0.10;0.10;;;14.40;70.90;;;;;;4842960;29;20045;-74
2022/08/06 06:44:42;;;;;;;0.43;0.30;;;14.50;70.80;;;;;;4860317;29;20046;-75
2022/08/06 06:47:18;;;;;;;0.10;0.10;;;14.70;70.70;;;;;;4859866;29;20033;-74
2022/08/06 06:49:58;;;;;;;0.25;0.20;;;14.80;70.60;;;;;;4859495;29;20887;-74
2022/08/06 06:52:30;;;;;;;0.10;0.10;;;14.90;70.30;;;;;;4859831;29;20033;-74
2022/08/06 06:55:16;;;;;;;0.10;0.10;;;15.00;70.20;;;;;;4859792;29;20033;-75
2022/08/06 06:57:49;;;;;;;0.20;0.20;;;15.00;70.10;;;;;;4859161;29;20109;-74
2022/08/06 07:00:15;;;;;;;0.35;0.20;;;15.20;70.00;;;;;;4843559;29;20045;-75
2022/08/06 07:02:44;;;;;;;0.22;0.22;;;15.30;69.90;;;;;;4843216;29;20046;-74
2022/08/06 07:05:11;;;;;;;0.20;0.20;;;15.50;69.80;;;;;;4859915;29;20504;-74
2022/08/06 07:07:40;;;;;;;0.52;0.30;;;15.60;69.60;;;;;;4841561;29;20134;-74
2022/08/06 07:10:09;;;;;;;0.32;0.30;;;15.70;69.30;;;;;;4859925;29;20045;-75
2022/08/06 07:12:36;;;;;;;0.80;0.22;;;15.80;69.20;;;;;;4859357;29;20125;-75
2022/08/06 07:15:04;;;;;;;0.30;0.30;;;15.90;69.10;;;;;;4842856;29;20049;-74
2022/08/06 07:17:32;;;;;;;0.73;0.20;;;16.10;69.00;;;;;;4859161;29;20116;-74
2022/08/06 07:20:01;;;;;;;1.42;0.30;;;16.20;68.70;;;;;;4842604;29;20098;-75
2022/08/06 07:22:27;;;;;;;0.45;0.20;;;16.30;68.40;;;;;;4859408;29;20038;-74
2022/08/06 07:24:59;;;;;;;0.30;0.20;;;16.50;68.30;;;;;;4859380;29;20048;-75
2022/08/06 07:27:32;;;;;;;0.20;0.20;;;16.50;68.20;;;;;;4859194;29;20033;-75
2022/08/06 07:29:59;;;;;;;0.20;0.20;;;16.60;68.00;;;;;;4859199;29;20155;-75
2022/08/06 07:32:27;;;;;;;0.20;0.20;;;16.80;68.00;;;;;;4841490;29;20125;-75
2022/08/06 07:34:53;;;;;;;0.32;0.20;;;16.80;67.80;;;;;;4827759;29;20040;-75
2022/08/06 07:37:21;;;;;;;0.30;0.30;;;17.00;68.40;;;;;;4842777;29;20049;-75
2022/08/06 07:39:49;;;;;;;1.08;0.30;;;17.00;67.60;;;;;;4859467;29;20105;-75
2022/08/06 07:42:17;;;;;;;0.40;0.20;;;17.20;67.60;;;;;;4842861;29;20048;-75
2022/08/06 07:44:47;;;;;;;0.35;0.20;;;17.30;67.60;;;;;;4859555;29;20037;-74
2022/08/06 07:47:17;;;;;;;0.20;0.20;;;17.40;67.30;;;;;;4859271;29;20555;-75
2022/08/06 07:49:45;;;;;;;0.20;0.20;;;17.50;67.10;;;;;;4826156;29;20129;-74
2022/08/06 07:52:15;;;;;;;0.70;0.30;;;17.70;66.90;;;;;;4858937;29;20051;-74
2022/08/06 07:54:42;;;;;;;0.22;0.17;;;17.80;66.70;;;;;;4859488;29;20052;-75
2022/08/06 07:57:10;;;;;;;0.20;0.20;;;18.00;66.60;;;;;;4859025;29;20041;-74
2022/08/06 07:59:36;;;;;;;0.20;0.20;;;18.00;66.40;;;;;;4858853;29;20033;-74
2022/08/06 08:02:04;;;;;;;0.20;0.20;;;18.10;66.20;;;;;;4842359;29;20094;-74
2022/08/06 08:07:07;;;;;;;0.20;0.20;;;18.30;66.00;;;;;;4858471;29;20080;-74
2022/08/06 08:09:35;;;;;;;0.35;0.20;;;18.40;65.90;;;;;;4858851;29;20080;-75
2022/08/06 08:12:02;;;;;;;0.15;0.15;;;18.60;65.70;;;;;;4845213;29;20128;-75
2022/08/06 08:14:30;;;;;;;0.20;0.20;;;18.70;65.30;;;;;;4845422;29;20044;-74
2022/08/06 08:16:55;;;;;;;0.20;0.20;;;19.00;65.10;;;;;;4830218;29;20055;-74
2022/08/06 08:19:31;;;;;;;0.17;0.17;;;19.10;64.80;;;;;;4862316;29;20477;-74
2022/08/06 08:21:59;;;;;;;0.40;0.30;;;19.30;64.50;;;;;;4861557;29;20049;-74
2022/08/06 08:24:26;;;;;;;0.20;0.20;;;19.50;64.10;;;;;;4862287;29;20052;-75
2022/08/06 08:26:53;;;;;;;0.30;0.30;;;19.70;63.80;;;;;;4861785;29;20046;-74
2022/08/06 08:29:19;;;;;;;0.20;0.20;;;19.90;63.60;;;;;;4861429;29;20053;-74
2022/08/06 08:31:45;;;;;;;0.10;0.10;;;20.10;63.40;;;;;;4861814;29;20048;-74
2022/08/06 08:34:11;;;;;;;0.95;0.30;;;20.20;63.10;;;;;;4844756;29;20045;-74
2022/08/06 08:36:38;;;;;;;0.20;0.20;;;20.40;62.80;;;;;;4861653;29;20497;-74
2022/08/06 08:39:04;;;;;;;0.20;0.20;;;20.60;62.60;;;;;;4844863;29;20477;-75
2022/08/06 08:41:35;;;;;;;0.20;0.20;;;20.50;62.60;;;;;;4861545;29;20041;-74
2022/08/06 08:44:05;;;;;;;0.20;0.20;;;20.40;63.00;;;;;;4862140;29;20050;-74
2022/08/06 08:46:34;;;;;;;1.15;0.47;;;20.30;63.20;;;;;;4844832;29;20086;-74
2022/08/06 08:49:03;;;;;;;1.02;0.22;;;20.20;63.40;;;;;;4844893;29;20077;-75
2022/08/06 08:51:31;;;;;;;0.20;0.20;;;20.10;63.70;;;;;;4844938;29;20038;-75
2022/08/06 08:54:00;;;;;;;0.20;0.20;;;20.00;64.00;;;;;;4861827;29;20093;-75
2022/08/06 08:56:26;;;;;;;0.45;0.28;;;19.90;64.50;;;;;;4861479;29;20553;-75
2022/08/06 08:58:52;;;;;;;0.20;0.20;;;20.10;64.40;;;;;;4829531;29;20174;-75
2022/08/06 09:01:18;;;;;;;0.20;0.20;;;20.40;63.60;;;;;;4861573;29;20093;-75
2022/08/06 09:03:44;;;;;;;0.10;0.10;;;20.70;63.00;;;;;;4844308;29;20056;-75
2022/08/06 09:06:11;;;;;;;0.52;0.20;;;20.70;62.70;;;;;;4861155;29;20041;-76
2022/08/06 09:08:38;;;;;;;0.80;0.38;;;20.60;62.80;;;;;;4861164;29;20057;-76
2022/08/06 09:11:05;;;;;;;0.20;0.20;;;20.80;62.90;;;;;;4814300;29;20047;-76
2022/08/06 09:13:31;;;;;;;0.20;0.20;;;21.10;62.50;;;;;;4842907;29;20091;-76
2022/08/06 09:15:57;;;;;;;0.82;0.20;;;21.20;62.00;;;;;;4861275;29;20041;-76
2022/08/06 09:18:25;;;;;;;0.20;0.20;;;21.40;61.50;;;;;;4861180;29;20038;-75
2022/08/06 09:20:51;;;;;;;0.20;0.20;;;21.40;61.20;;;;;;4857894;29;20109;-75
2022/08/06 09:23:18;;;;;;;0.10;0.10;;;21.50;60.90;;;;;;4860945;29;20124;-74
2022/08/06 09:25:48;;;;;;;0.15;0.15;;;21.30;61.20;;;;;;4860841;29;20038;-74
2022/08/06 09:28:29;;;;;;;;;;;21.20;61.70;;;;;;4861190;29;20129;-75
2022/08/06 09:31:18;;;;;;;0.20;0.20;;;20.90;62.20;;;;;;4860736;29;19908;-74
2022/08/06 09:34:05;;;;;;;0.45;0.20;;;20.80;62.60;;;;;;4845033;29;20454;-74
2022/08/06 09:36:47;;;;;;;0.10;0.10;;;21.00;62.40;;;;;;4861017;29;20509;-74
2022/08/06 09:39:13;;;;;;;0.22;0.22;;;21.10;61.80;;;;;;4860756;29;20068;-76
2022/08/06 09:41:47;;;;;;;0.20;0.20;;;21.30;61.30;;;;;;4861235;29;20063;-74
2022/08/06 09:44:13;;;;;;;0.57;0.25;;;21.50;60.60;;;;;;4844573;29;20110;-74
2022/08/06 09:46:44;;;;;;;0.20;0.20;;;21.60;60.30;;;;;;4860869;29;20041;-74
2022/08/06 09:49:12;;;;;;;0.43;0.30;;;21.70;60.10;;;;;;4857738;29;20049;-75
2022/08/06 09:51:39;;;;;;;0.15;0.15;;;21.90;60.00;;;;;;4859281;29;20030;-75
2022/08/06 09:54:09;;;;;;;0.10;0.10;;;22.00;59.70;;;;;;4860564;29;20561;-74
2022/08/06 09:56:37;;;;;;;0.20;0.20;;;22.00;59.30;;;;;;4860963;29;20029;-74
2022/08/06 09:59:05;;;;;;;0.13;0.13;;;22.00;59.20;;;;;;4860436;29;20056;-74
2022/08/06 10:01:42;;;;;;;0.20;0.20;;;22.00;59.30;;;;;;4828369;29;20134;-74
2022/08/06 10:04:13;;;;;;;0.20;0.20;;;21.90;59.10;;;;;;4859072;29;20048;-74
2022/08/06 10:06:54;;;;;;;0.22;0.22;;;21.80;59.30;;;;;;4844436;29;20049;-74
2022/08/06 10:09:20;;;;;;;0.20;0.20;;;21.80;59.50;;;;;;4860653;29;20053;-74
2022/08/06 10:11:46;;;;;;;0.38;0.20;;;22.00;59.30;;;;;;4860215;29;21451;-74
2022/08/06 10:14:30;;;;;;;0.35;0.30;;;22.20;58.90;;;;;;4860639;29;20037;-74
2022/08/06 10:17:13;;;;;;;0.40;0.30;;;22.40;58.40;;;;;;4860687;29;20068;-75
2022/08/06 10:19:42;;;;;;;0.20;0.20;;;22.70;57.90;;;;;;4860302;29;20038;-74
2022/08/06 10:22:09;;;;;;;0.28;0.20;;;22.70;57.70;;;;;;4843806;29;20128;-74
2022/08/06 10:24:40;;;;;;;0.38;0.30;;;22.80;57.80;;;;;;4843556;29;20050;-74
2022/08/06 10:27:08;;;;;;;0.30;0.22;;;22.80;57.70;;;;;;4843821;29;20083;-74
2022/08/06 10:29:48;;;;;;;0.20;0.20;;;22.80;57.50;;;;;;4859829;29;20057;-73
2022/08/06 10:32:17;;;;;;;0.30;0.30;;;23.00;57.20;;;;;;4841628;29;20037;-73
2022/08/06 10:34:48;;;;;;;0.15;0.15;;;23.10;56.70;;;;;;4842029;29;20499;-74
2022/08/06 10:37:16;;;;;;;;;;;23.20;56.50;;;;;;4859108;29;20040;-74
2022/08/06 10:39:47;;;;;;;0.28;0.20;;;23.20;56.60;;;;;;4859845;29;19911;-74
2022/08/06 10:42:13;;;;;;;0.20;0.20;;;23.20;56.50;;;;;;4859905;29;20044;-74
2022/08/06 10:44:40;;;;;;;0.30;0.20;;;23.20;56.40;;;;;;4860093;29;20034;-75
2022/08/06 10:47:07;;;;;;;0.20;0.20;;;23.10;56.60;;;;;;4860218;29;20049;-74
2022/08/06 10:49:33;;;;;;;0.50;0.30;;;22.90;56.90;;;;;;4860125;29;20045;-74
2022/08/06 10:52:00;;;;;;;0.45;0.40;;;22.80;56.90;;;;;;4859781;29;20043;-74
2022/08/06 10:54:27;;;;;;;0.32;0.22;;;22.70;56.90;;;;;;4859689;29;20037;-74
2022/08/06 10:56:54;;;;;;;0.30;0.30;;;22.70;57.20;;;;;;4859926;29;20041;-74
2022/08/06 10:59:21;;;;;;;0.45;0.20;;;22.80;56.90;;;;;;4859837;29;20928;-74
2022/08/06 11:02:05;;;;;;;0.22;0.22;;;22.90;56.60;;;;;;4860175;29;20091;-74
2022/08/06 11:04:52;;;;;;;0.20;0.20;;;23.10;56.20;;;;;;4843225;29;20042;-74
2022/08/06 11:07:49;;;;;;;0.20;0.20;;;23.40;55.70;;;;;;4843416;29;20104;-74
2022/08/06 11:10:39;;;;;;;0.55;0.20;;;23.60;55.20;;;;;;4859373;29;20057;-74
2022/08/06 11:13:15;;;;;;;0.20;0.20;;;23.60;55.00;;;;;;4858152;29;20034;-74
2022/08/06 11:15:42;;;;;;;0.10;0.10;;;23.50;55.10;;;;;;4859400;29;20573;-74
2022/08/06 11:18:10;;;;;;;0.38;0.20;;;23.20;55.50;;;;;;4859416;29;20049;-75
2022/08/06 11:20:42;;;;;;;0.20;0.20;;;23.20;55.90;;;;;;4842639;29;20049;-75
2022/08/06 11:23:25;;;;;;;0.30;0.30;;;23.20;55.70;;;;;;4841693;29;20045;-75
2022/08/06 11:25:54;;;;;;;0.60;0.20;;;23.30;55.80;;;;;;4859173;29;20037;-74
2022/08/06 11:29:00;;;;;;;0.52;0.30;;;23.10;56.00;;;;;;4841964;29;20128;-75
2022/08/06 11:31:32;;;;;;;0.30;0.30;;;23.00;55.90;;;;;;4844461;29;20106;-74
2022/08/06 11:34:00;;;;;;;0.20;0.20;;;22.90;56.70;;;;;;4841963;29;20564;-74
2022/08/06 11:36:27;;;;;;;0.88;0.30;;;23.10;55.90;;;;;;4859352;29;20481;-74
2022/08/06 11:38:58;;;;;;;0.32;0.30;;;23.20;55.40;;;;;;4842848;29;20511;-73
2022/08/06 11:41:25;;;;;;;;;;;23.50;55.00;;;;;;4842765;29;20454;-74
2022/08/06 11:44:06;;;;;;;0.20;0.20;;;23.60;54.60;;;;;;4857725;29;19909;-74
2022/08/06 11:46:36;;;;;;;0.20;0.20;;;23.70;54.40;;;;;;4859164;29;20037;-74
2022/08/06 11:49:24;;;;;;;0.43;0.20;;;23.70;54.50;;;;;;4842508;29;20500;-74
2022/08/06 11:51:58;;;;;;;0.32;0.20;;;23.50;54.70;;;;;;4844518;29;20041;-75
2022/08/06 11:54:27;;;;;;;0.20;0.20;;;23.20;54.90;;;;;;4859278;29;20472;-74
2022/08/06 11:57:21;;;;;;;1.33;0.20;;;23.10;55.40;;;;;;4859036;29;20030;-73
2022/08/06 12:00:02;;;;;;;0.35;0.20;;;22.90;55.60;;;;;;4859512;29;20049;-73
2022/08/06 12:02:46;;;;;;;0.20;0.20;;;22.80;55.80;;;;;;4858875;29;20052;-74
2022/08/06 12:05:32;;;;;;;0.20;0.20;;;22.60;55.80;;;;;;4858829;29;20065;-75
2022/08/06 12:08:18;;;;;;;0.20;0.20;;;22.60;56.00;;;;;;4845566;29;20025;-75
2022/08/06 12:11:15;;;;;;;0.25;0.20;;;22.60;56.00;;;;;;4859118;29;20069;-74
2022/08/06 12:13:41;;;;;;;0.20;0.20;;;22.60;56.00;;;;;;4858656;29;20046;-75
2022/08/06 12:16:26;;;;;;;0.43;0.20;;;22.50;55.90;;;;;;4842180;29;20036;-74
2022/08/06 12:18:52;;;;;;;1.63;0.30;;;22.60;55.60;;;;;;4842410;29;20053;-74
2022/08/06 12:21:18;;;;;;;0.45;0.30;;;22.50;55.60;;;;;;4841617;29;20049;-74
2022/08/06 12:23:48;;;;;;;0.10;0.10;;;22.60;55.50;;;;;;4858958;29;20053;-74
2022/08/06 12:26:15;;;;;;;0.28;0.28;;;22.60;55.20;;;;;;4858797;29;20077;-74
2022/08/06 12:28:42;;;;;;;0.32;0.30;;;22.80;55.20;;;;;;4858880;29;20053;-74
2022/08/06 12:31:08;;;;;;;0.20;0.20;;;22.80;55.00;;;;;;4858641;29;20042;-74
2022/08/06 12:33:42;;;;;;;0.20;0.20;;;22.90;54.80;;;;;;4858653;29;20060;-74
2022/08/06 12:36:08;;;;;;;1.13;0.30;;;23.00;54.50;;;;;;4857470;29;20038;-74
2022/08/06 12:38:36;;;;;;;1.08;0.22;;;23.10;54.10;;;;;;4858505;29;20057;-74
2022/08/06 12:41:05;;;;;;;0.13;0.13;;;23.30;53.70;;;;;;4858371;29;20068;-74
2022/08/06 12:43:33;;;;;;;0.20;0.20;;;23.40;53.60;;;;;;4858612;29;20050;-74
2022/08/06 12:46:03;;;;;;;0.20;0.20;;;23.40;53.40;;;;;;4858460;29;20061;-74
2022/08/06 12:48:29;;;;;;;0.20;0.20;;;23.40;53.40;;;;;;4840702;29;20122;-74
2022/08/06 12:51:13;;;;;;;0.20;0.20;;;23.30;53.60;;;;;;4858500;29;20068;-75
2022/08/06 12:53:46;;;;;;;0.20;0.20;;;23.20;53.70;;;;;;4858645;29;20029;-74
2022/08/06 12:56:12;;;;;;;0.10;0.10;;;23.10;54.00;;;;;;4859059;29;20552;-74
2022/08/06 12:58:40;;;;;;;0.20;0.20;;;22.90;54.10;;;;;;4844772;29;20397;-74
2022/08/06 13:01:10;;;;;;;0.20;0.20;;;22.80;54.30;;;;;;4861199;29;20191;-74
2022/08/06 13:03:39;;;;;;;0.20;0.20;;;22.70;54.40;;;;;;4844604;29;20152;-74
2022/08/06 13:06:07;;;;;;;0.10;0.10;;;22.70;54.40;;;;;;4861633;29;20486;-74
2022/08/06 13:08:34;;;;;;;0.20;0.20;;;22.70;54.40;;;;;;4861122;29;20742;-74